Time;durP1;ratioP1;P1;durP2;ratioP2;P2;SDS_P1;SDS_P2;PMS_P1;PMS_P2;Temp;Humidity;BMP_temperature;BMP_pressure;BME280_temperature;BME280_humidity;BME280_pressure;Samples;Min_cycle;Max_cycle;Signal;HPM_P1;HPM_P2
2023/02/10 00:00:12;;;;;;;52.67;26.77;;;1.20;99.90;;;;;;6254739;22;38928;-80
2023/02/10 00:02:38;;;;;;;55.47;28.37;;;1.20;99.90;;;;;;6228020;22;37299;-80
2023/02/10 00:05:04;;;;;;;50.87;26.97;;;1.30;99.90;;;;;;6256009;22;38172;-80
2023/02/10 00:07:30;;;;;;;51.40;26.30;;;1.20;99.90;;;;;;6226491;22;37045;-80
2023/02/10 00:09:56;;;;;;;43.93;24.60;;;1.20;99.90;;;;;;6251425;22;39001;-80
2023/02/10 00:12:22;;;;;;;55.93;27.27;;;1.20;99.90;;;;;;6248800;22;38244;-80
2023/02/10 00:14:48;;;;;;;51.57;26.27;;;1.10;99.90;;;;;;6251498;22;37875;-80
2023/02/10 00:17:17;;;;;;;50.50;26.30;;;1.20;99.90;;;;;;6249418;22;36750;-80
2023/02/10 00:19:43;;;;;;;65.37;30.90;;;1.30;99.90;;;;;;6224167;22;38140;-80
2023/02/10 00:22:09;;;;;;;60.40;29.60;;;1.60;99.90;;;;;;6250945;22;39140;-80
2023/02/10 00:24:35;;;;;;;68.80;31.17;;;2.00;99.90;;;;;;6253452;22;39163;-80
2023/02/10 00:27:01;;;;;;;67.30;30.77;;;2.20;99.90;;;;;;6252901;22;38127;-80
2023/02/10 00:29:28;;;;;;;69.87;30.30;;;2.30;99.90;;;;;;6254048;22;38485;-80
2023/02/10 00:31:54;;;;;;;55.53;29.93;;;2.30;99.90;;;;;;6253001;22;38355;-80
2023/02/10 00:34:20;;;;;;;67.13;34.43;;;2.30;99.90;;;;;;6252570;22;38558;-80
2023/02/10 00:36:50;;;;;;;57.70;30.90;;;2.30;99.90;;;;;;6225025;22;36933;-80
2023/02/10 00:39:16;;;;;;;62.63;31.00;;;2.30;99.90;;;;;;6223647;22;38129;-80
2023/02/10 00:41:42;;;;;;;60.03;30.23;;;2.20;99.90;;;;;;6226780;22;38615;-80
2023/02/10 00:44:08;;;;;;;68.27;31.80;;;2.20;99.90;;;;;;6253474;22;38583;-80
2023/02/10 00:46:34;;;;;;;57.70;29.93;;;2.20;99.90;;;;;;6249351;22;37515;-80
2023/02/10 00:49:01;;;;;;;61.93;29.90;;;2.00;99.90;;;;;;6221080;22;37872;-80
2023/02/10 00:51:27;;;;;;;52.70;30.03;;;1.80;99.90;;;;;;6227433;22;38522;-80
2023/02/10 00:53:53;;;;;;;58.03;29.30;;;1.60;99.90;;;;;;6262809;22;38383;-80
2023/02/10 00:56:20;;;;;;;58.07;29.83;;;1.40;99.90;;;;;;6262601;22;38571;-81
2023/02/10 00:58:47;;;;;;;63.23;31.93;;;1.30;99.90;;;;;;6264793;22;39580;-81
2023/02/10 01:01:13;;;;;;;61.13;29.63;;;1.20;99.90;;;;;;6233652;22;37436;-80
2023/02/10 01:03:40;;;;;;;55.70;27.20;;;1.10;99.90;;;;;;6238538;22;37349;-81
2023/02/10 01:06:06;;;;;;;64.73;30.60;;;1.10;99.90;;;;;;6265970;22;37998;-80
2023/02/10 01:08:33;;;;;;;50.53;27.30;;;1.20;99.90;;;;;;6241654;22;37639;-80
2023/02/10 01:11:04;;;;;;;54.90;26.27;;;1.30;99.90;;;;;;6265560;22;39601;-80
2023/02/10 01:13:33;;;;;;;64.07;30.13;;;1.50;99.90;;;;;;6262592;22;48730;-80
2023/02/10 01:16:00;;;;;;;58.30;29.77;;;1.60;99.90;;;;;;6237934;22;37848;-80
2023/02/10 01:18:26;;;;;;;62.83;30.80;;;1.70;99.90;;;;;;6237089;22;37726;-81
2023/02/10 01:20:52;;;;;;;53.77;30.40;;;1.90;99.90;;;;;;6235022;22;37180;-81
2023/02/10 01:23:18;;;;;;;69.00;32.63;;;2.00;99.90;;;;;;6230968;22;37147;-80
2023/02/10 01:25:45;;;;;;;76.90;34.93;;;2.00;99.90;;;;;;6254951;22;36321;-81
2023/02/10 01:28:11;;;;;;;69.27;31.40;;;2.00;99.90;;;;;;6257261;22;40302;-81
2023/02/10 01:30:37;;;;;;;68.37;32.87;;;2.10;99.90;;;;;;6233661;22;36973;-81
2023/02/10 01:33:04;;;;;;;73.57;33.53;;;2.10;99.90;;;;;;6260555;22;38302;-80
2023/02/10 01:35:30;;;;;;;67.87;33.13;;;2.00;99.90;;;;;;6260115;22;37444;-81
2023/02/10 01:37:57;;;;;;;56.40;30.27;;;1.90;99.90;;;;;;6261583;22;38386;-81
2023/02/10 01:40:25;;;;;;;57.53;28.30;;;1.70;99.90;;;;;;6259676;22;38685;-80
2023/02/10 01:42:52;;;;;;;64.77;31.17;;;1.50;99.90;;;;;;6235920;22;37141;-81
2023/02/10 01:45:37;;;;;;;57.40;27.57;;;1.40;99.90;;;;;;6259745;22;38261;-81
2023/02/10 01:48:04;;;;;;;61.63;29.00;;;1.20;99.90;;;;;;6233943;22;37460;-81
2023/02/10 01:50:42;;;;;;;56.27;30.17;;;1.10;99.90;;;;;;6234845;22;37795;-81
2023/02/10 01:53:10;;;;;;;60.37;28.93;;;1.00;99.90;;;;;;6235817;22;37351;-81
2023/02/10 01:55:39;;;;;;;65.80;30.43;;;0.90;99.90;;;;;;6237980;22;36573;-81
2023/02/10 01:58:09;;;;;;;60.80;29.93;;;0.70;99.90;;;;;;6236897;22;37777;-81
2023/02/10 02:03:26;;;;;;;63.47;28.57;;;0.70;99.90;;;;;;6221289;22;20017;-79
2023/02/10 02:05:52;;;;;;;53.13;29.13;;;0.60;99.90;;;;;;6189818;23;39546;-79
2023/02/10 02:08:22;;;;;;;57.83;29.87;;;0.60;99.90;;;;;;6192273;23;37893;-79
2023/02/10 02:11:07;;;;;;;60.37;28.77;;;0.50;99.90;;;;;;6191581;23;39808;-79
2023/02/10 02:13:45;;;;;;;78.77;32.03;;;0.50;99.90;;;;;;6218471;23;49103;-79
2023/02/10 02:16:35;;;;;;;46.63;26.50;;;0.50;99.90;;;;;;6216667;23;37349;-79
2023/02/10 02:19:04;;;;;;;68.23;30.73;;;0.50;99.90;;;;;;6186033;23;39421;-80
2023/02/10 02:22:17;;;;;;;69.60;29.93;;;0.50;99.90;;;;;;6220021;23;48669;-79
2023/02/10 02:24:57;;;;;;;50.97;25.65;;;0.50;99.90;;;;;;6207498;23;46774;-79
2023/02/10 02:27:46;;;;;;;66.20;30.57;;;0.50;99.90;;;;;;6217060;23;38080;-79
2023/02/10 02:30:42;;;;;;;65.37;30.57;;;0.70;99.90;;;;;;6191841;23;40035;-79
2023/02/10 02:33:23;;;;;;;84.40;34.60;;;0.80;99.90;;;;;;6191388;23;39075;-78
2023/02/10 02:36:18;;;;;;;53.23;28.33;;;0.80;99.90;;;;;;6189556;23;37053;-79
2023/02/10 02:38:44;;;;;;;67.50;32.70;;;0.80;99.90;;;;;;6153189;23;46991;-79
2023/02/10 02:41:10;;;;;;;79.07;36.43;;;0.90;99.90;;;;;;6185133;23;39325;-80
2023/02/10 02:43:38;;;;;;;61.50;30.50;;;0.90;99.90;;;;;;6214224;23;38814;-79
2023/02/10 02:46:07;;;;;;;73.33;34.57;;;0.90;99.90;;;;;;6216837;23;38917;-80
2023/02/10 02:48:42;;;;;;;64.17;32.73;;;0.90;99.90;;;;;;6191814;23;36299;-79
2023/02/10 02:51:35;;;;;;;81.60;39.30;;;0.90;99.90;;;;;;6188958;23;38648;-79
2023/02/10 02:54:28;;;;;;;86.27;38.10;;;0.90;99.90;;;;;;6187355;23;38752;-80
2023/02/10 02:57:02;;;;;;;81.97;36.33;;;1.00;99.90;;;;;;6188257;23;46754;-79
2023/02/10 02:59:39;;;;;;;81.67;37.40;;;0.90;99.90;;;;;;6204890;23;49051;-80
2023/02/10 03:02:11;;;;;;;70.10;34.97;;;0.80;99.90;;;;;;6214267;23;38761;-79
2023/02/10 03:04:38;;;;;;;72.85;33.53;;;0.70;99.90;;;;;;6190348;23;38520;-79
2023/02/10 03:07:05;;;;;;;75.70;33.33;;;0.60;99.90;;;;;;6184187;23;39059;-80
2023/02/10 03:09:32;;;;;;;81.60;35.43;;;0.50;99.90;;;;;;6187881;23;38965;-78
2023/02/10 03:11:59;;;;;;;63.67;33.30;;;0.40;99.90;;;;;;6187503;23;38707;-79
2023/02/10 03:14:25;;;;;;;92.13;37.00;;;0.50;99.90;;;;;;6210268;23;39199;-80
2023/02/10 03:16:51;;;;;;;76.43;34.17;;;0.40;99.90;;;;;;6216015;23;39224;-79
2023/02/10 03:19:18;;;;;;;64.23;32.40;;;0.30;99.90;;;;;;6188344;23;36984;-79
2023/02/10 03:21:44;;;;;;;68.40;33.80;;;0.20;99.90;;;;;;6188146;23;38789;-79
2023/02/10 03:24:10;;;;;;;87.97;37.43;;;0.20;99.90;;;;;;6216613;23;38959;-80
2023/02/10 03:26:37;;;;;;;100.60;42.50;;;0.30;99.90;;;;;;6190245;23;38887;-79
2023/02/10 03:29:04;;;;;;;70.33;34.70;;;0.40;99.90;;;;;;6214464;23;38541;-80
2023/02/10 03:31:31;;;;;;;97.63;40.90;;;0.30;99.90;;;;;;6188816;23;39601;-79
2023/02/10 03:33:57;;;;;;;71.57;35.17;;;0.20;99.90;;;;;;6189822;23;38508;-80
2023/02/10 03:36:24;;;;;;;70.93;34.63;;;0.20;99.90;;;;;;6183568;23;39017;-79
2023/02/10 03:38:50;;;;;;;78.00;35.87;;;0.10;99.90;;;;;;6185701;23;37595;-80
2023/02/10 03:41:16;;;;;;;66.53;33.53;;;0.20;99.90;;;;;;6186812;23;37589;-79
2023/02/10 03:43:43;;;;;;;74.40;36.00;;;0.20;99.90;;;;;;6189655;23;38910;-79
2023/02/10 03:46:10;;;;;;;82.57;37.97;;;0.40;99.90;;;;;;6186867;23;38081;-79
2023/02/10 03:48:36;;;;;;;81.63;37.53;;;0.40;99.90;;;;;;6187189;23;36269;-79
2023/02/10 03:51:05;;;;;;;92.53;38.50;;;0.40;99.90;;;;;;6180845;23;37741;-80
2023/02/10 03:53:32;;;;;;;109.97;41.27;;;0.30;99.90;;;;;;6186991;23;42002;-79
2023/02/10 03:55:58;;;;;;;73.67;36.00;;;0.30;99.90;;;;;;6186969;23;37190;-78
2023/02/10 03:58:25;;;;;;;83.57;37.63;;;0.40;99.90;;;;;;6209341;23;37339;-79
2023/02/10 04:00:51;;;;;;;99.73;44.70;;;0.50;99.90;;;;;;6189531;23;37825;-79
2023/02/10 04:03:18;;;;;;;95.80;40.53;;;0.40;99.90;;;;;;6198840;22;39214;-79
2023/02/10 04:05:45;;;;;;;71.53;36.40;;;0.40;99.90;;;;;;6220438;22;41800;-80
2023/02/10 04:08:11;;;;;;;117.77;45.60;;;0.40;99.90;;;;;;6212323;22;37534;-79
2023/02/10 04:10:37;;;;;;;81.03;40.30;;;0.50;99.90;;;;;;6219520;22;39162;-79
2023/02/10 04:13:03;;;;;;;77.63;38.30;;;0.50;99.90;;;;;;6217301;22;39355;-79
2023/02/10 04:15:30;;;;;;;82.33;40.37;;;0.50;99.90;;;;;;6245763;22;38275;-79
2023/02/10 04:17:56;;;;;;;113.73;41.00;;;0.50;99.90;;;;;;6244295;22;37673;-79
2023/02/10 04:20:23;;;;;;;99.80;40.50;;;0.60;99.90;;;;;;6210847;22;39190;-79
2023/02/10 04:22:49;;;;;;;134.50;41.93;;;0.70;99.90;;;;;;6246106;22;38394;-79
2023/02/10 04:25:15;;;;;;;285.00;58.17;;;0.70;99.90;;;;;;6241507;22;37861;-79
2023/02/10 04:27:42;;;;;;;97.40;40.10;;;0.80;99.90;;;;;;6219666;22;38256;-79
2023/02/10 04:30:09;;;;;;;173.07;46.80;;;0.80;99.90;;;;;;6245419;22;38021;-79
2023/02/10 04:32:35;;;;;;;183.27;44.67;;;0.80;99.90;;;;;;6218598;22;39216;-79
2023/02/10 04:35:01;;;;;;;192.00;46.80;;;0.80;99.90;;;;;;6219563;22;38806;-79
2023/02/10 04:37:27;;;;;;;134.00;38.80;;;0.80;99.90;;;;;;6216870;22;37422;-79
2023/02/10 04:39:54;;;;;;;134.53;36.80;;;0.90;99.90;;;;;;6218405;22;37592;-79
2023/02/10 04:42:29;;;;;;;118.40;35.50;;;1.00;99.90;;;;;;6215323;22;39028;-79
2023/02/10 04:44:59;;;;;;;149.50;42.87;;;1.10;99.90;;;;;;6217254;22;39519;-79
2023/02/10 04:47:28;;;;;;;169.63;42.43;;;1.00;99.90;;;;;;6243996;22;37226;-80
2023/02/10 04:49:55;;;;;;;73.60;31.87;;;1.00;99.90;;;;;;6237121;22;39895;-80
2023/02/10 04:52:21;;;;;;;71.33;31.13;;;0.90;99.90;;;;;;6216798;22;39120;-79
2023/02/10 04:54:48;;;;;;;51.03;29.60;;;0.90;99.90;;;;;;6246399;22;38614;-80
2023/02/10 04:57:14;;;;;;;75.93;32.40;;;0.80;99.90;;;;;;6215955;22;38960;-80
2023/02/10 04:59:40;;;;;;;85.37;30.67;;;0.80;99.90;;;;;;6218074;22;39087;-80
2023/02/10 05:02:06;;;;;;;58.83;29.50;;;0.80;99.90;;;;;;6212969;22;38734;-80
2023/02/10 05:04:32;;;;;;;47.00;29.27;;;0.70;99.90;;;;;;6194878;23;39630;-79
2023/02/10 05:06:58;;;;;;;45.70;27.30;;;0.70;99.90;;;;;;6210322;23;38192;-80
2023/02/10 05:09:27;;;;;;;38.87;25.70;;;0.70;99.90;;;;;;6209600;22;37596;-80
2023/02/10 05:11:53;;;;;;;57.20;30.73;;;0.50;99.90;;;;;;6212194;22;39111;-80
2023/02/10 05:14:19;;;;;;;39.13;26.97;;;0.50;99.90;;;;;;6209511;22;37886;-80
2023/02/10 05:16:45;;;;;;;40.40;26.23;;;0.50;99.90;;;;;;6217683;22;37618;-80
2023/02/10 05:19:12;;;;;;;47.50;25.27;;;0.50;99.90;;;;;;6213350;22;39157;-79
2023/02/10 05:21:38;;;;;;;60.50;30.10;;;0.50;99.90;;;;;;6210448;23;37361;-79
2023/02/10 05:24:04;;;;;;;37.87;27.60;;;0.50;99.90;;;;;;6213120;22;39325;-78
2023/02/10 05:26:31;;;;;;;51.53;26.50;;;0.50;99.90;;;;;;6211740;23;38634;-79
2023/02/10 05:28:57;;;;;;;47.53;25.13;;;0.50;99.90;;;;;;6210091;23;37331;-79
2023/02/10 05:31:23;;;;;;;82.07;29.20;;;0.40;99.90;;;;;;6208478;22;39511;-78
2023/02/10 05:33:49;;;;;;;131.57;26.83;;;0.50;99.90;;;;;;6211646;22;38242;-79
2023/02/10 05:36:15;;;;;;;85.57;26.30;;;0.40;99.90;;;;;;6213017;22;37852;-79
2023/02/10 05:39:22;;;;;;;105.57;26.33;;;0.40;99.90;;;;;;6208845;22;38467;-79
2023/02/10 05:41:27;;;;;;;58.07;24.57;;;0.40;99.90;;;;;;6212457;22;48867;-79
2023/02/10 05:43:53;;;;;;;56.77;23.33;;;0.30;99.90;;;;;;6213496;23;39671;-79
2023/02/10 05:46:20;;;;;;;52.77;26.53;;;0.30;99.90;;;;;;6211577;22;36543;-79
2023/02/10 05:48:46;;;;;;;124.50;30.20;;;0.30;99.90;;;;;;6213039;23;40264;-79
2023/02/10 05:51:12;;;;;;;107.27;25.33;;;0.30;99.90;;;;;;6212097;22;38330;-79
2023/02/10 05:53:38;;;;;;;145.03;30.40;;;0.30;99.90;;;;;;6207264;23;39822;-79
2023/02/10 05:56:04;;;;;;;146.67;31.73;;;0.30;99.90;;;;;;6218297;22;39798;-79
2023/02/10 05:58:32;;;;;;;108.07;28.87;;;0.30;99.90;;;;;;6212311;23;40402;-80
2023/02/10 06:00:59;;;;;;;80.80;28.80;;;0.30;99.90;;;;;;6213907;23;37377;-79
2023/02/10 06:03:25;;;;;;;38.77;26.17;;;0.40;99.90;;;;;;6227647;22;38283;-80
2023/02/10 06:05:51;;;;;;;71.60;28.63;;;0.40;99.90;;;;;;6220275;22;37064;-79
2023/02/10 06:08:18;;;;;;;109.50;28.90;;;0.40;99.90;;;;;;6218290;22;39559;-79
2023/02/10 06:10:44;;;;;;;90.37;29.80;;;0.40;99.90;;;;;;6213529;22;38883;-79
2023/02/10 06:13:10;;;;;;;69.50;28.50;;;0.40;99.90;;;;;;6241697;22;37975;-79
2023/02/10 06:15:36;;;;;;;86.83;29.53;;;0.40;99.90;;;;;;6217697;22;37061;-79
2023/02/10 06:18:03;;;;;;;125.23;34.27;;;0.40;99.90;;;;;;6212883;22;39117;-80
2023/02/10 06:20:29;;;;;;;41.13;26.20;;;0.40;99.90;;;;;;6246599;22;39224;-79
2023/02/10 06:22:55;;;;;;;37.47;26.60;;;0.50;99.90;;;;;;6218540;22;38892;-79
2023/02/10 06:25:21;;;;;;;42.83;27.20;;;0.40;99.90;;;;;;6244619;22;37011;-79
2023/02/10 06:27:47;;;;;;;80.87;32.67;;;0.40;99.90;;;;;;6221486;22;39118;-79
2023/02/10 06:30:13;;;;;;;74.43;28.93;;;0.40;99.90;;;;;;6213914;22;38884;-79
2023/02/10 06:32:40;;;;;;;59.03;31.07;;;0.40;99.90;;;;;;6221407;22;37134;-79
2023/02/10 06:35:06;;;;;;;66.47;31.40;;;0.40;99.90;;;;;;6236866;22;37458;-78
2023/02/10 06:37:32;;;;;;;52.60;30.07;;;0.40;99.90;;;;;;6216726;22;39733;-79
2023/02/10 06:39:58;;;;;;;45.30;29.90;;;0.30;99.90;;;;;;6218236;22;40582;-80
2023/02/10 06:42:27;;;;;;;41.50;28.63;;;0.30;99.90;;;;;;6242541;22;39062;-79
2023/02/10 06:44:53;;;;;;;48.30;31.83;;;0.30;99.90;;;;;;6240512;22;37784;-79
2023/02/10 06:47:19;;;;;;;58.87;34.13;;;0.30;99.90;;;;;;6218528;22;37590;-79
2023/02/10 06:49:45;;;;;;;47.90;29.30;;;0.30;99.90;;;;;;6219772;22;39356;-82
2023/02/10 06:52:11;;;;;;;50.10;31.30;;;0.30;99.90;;;;;;6247760;22;37769;-80
2023/02/10 06:54:38;;;;;;;44.43;29.97;;;0.30;99.90;;;;;;6222128;22;37049;-80
2023/02/10 06:57:04;;;;;;;60.73;32.40;;;0.40;99.90;;;;;;6245168;22;39664;-80
2023/02/10 06:59:32;;;;;;;51.60;32.83;;;0.40;99.90;;;;;;6220470;22;38654;-79
2023/02/10 07:02:01;;;;;;;54.37;33.20;;;0.30;99.90;;;;;;6248631;22;38034;-79
2023/02/10 07:04:28;;;;;;;53.37;32.80;;;0.40;99.90;;;;;;6220195;22;47429;-79
2023/02/10 07:06:55;;;;;;;55.97;33.40;;;0.40;99.90;;;;;;6223495;22;39482;-79
2023/02/10 07:09:21;;;;;;;62.37;35.20;;;0.40;99.90;;;;;;6220885;22;39949;-79
2023/02/10 07:11:47;;;;;;;66.17;37.17;;;0.50;99.90;;;;;;6220550;22;39663;-80
2023/02/10 07:14:13;;;;;;;57.83;33.80;;;0.60;99.90;;;;;;6217132;22;36007;-79
2023/02/10 07:16:40;;;;;;;75.93;40.27;;;0.60;99.90;;;;;;6247961;22;39872;-79
2023/02/10 07:19:06;;;;;;;56.63;34.37;;;0.60;99.90;;;;;;6219181;22;38424;-79
2023/02/10 07:21:32;;;;;;;86.33;39.50;;;0.70;99.90;;;;;;6222470;22;40471;-79
2023/02/10 07:24:00;;;;;;;109.53;38.17;;;0.70;99.90;;;;;;6250968;22;37613;-80
2023/02/10 07:26:27;;;;;;;159.40;43.17;;;0.60;99.90;;;;;;6216235;22;39197;-79
2023/02/10 07:28:57;;;;;;;145.43;39.63;;;0.60;99.90;;;;;;6251592;22;38267;-80
2023/02/10 07:31:23;;;;;;;92.50;35.27;;;0.60;99.90;;;;;;6219747;22;40702;-80
2023/02/10 07:33:49;;;;;;;79.07;36.00;;;0.60;99.90;;;;;;6214091;22;38572;-82
2023/02/10 07:36:15;;;;;;;81.67;33.53;;;0.70;99.90;;;;;;6220319;22;39865;-79
2023/02/10 07:38:41;;;;;;;114.47;38.07;;;0.70;99.90;;;;;;6228653;22;38441;-78
2023/02/10 07:41:08;;;;;;;62.03;33.87;;;0.70;99.90;;;;;;6251571;22;38450;-79
2023/02/10 07:43:34;;;;;;;126.53;36.43;;;0.70;99.90;;;;;;6224348;22;38222;-78
2023/02/10 07:46:00;;;;;;;148.13;35.17;;;0.70;99.90;;;;;;6225632;22;40360;-79
2023/02/10 07:48:27;;;;;;;96.87;35.20;;;0.70;99.90;;;;;;6247719;22;47408;-79
2023/02/10 07:50:53;;;;;;;210.27;44.57;;;0.70;99.90;;;;;;6221864;22;38324;-79
2023/02/10 07:53:20;;;;;;;271.63;46.27;;;0.70;99.90;;;;;;6216591;22;36806;-78
2023/02/10 07:55:47;;;;;;;204.87;41.77;;;0.70;99.90;;;;;;6225281;22;37513;-78
2023/02/10 07:58:14;;;;;;;175.93;41.67;;;0.80;99.90;;;;;;6227299;22;38921;-80
2023/02/10 08:00:40;;;;;;;162.97;39.47;;;0.80;99.90;;;;;;6255754;22;38408;-81
2023/02/10 08:03:11;;;;;;;187.13;42.07;;;0.80;99.90;;;;;;6216770;22;36119;-79
2023/02/10 08:05:37;;;;;;;125.57;38.93;;;0.80;99.90;;;;;;6220112;22;39602;-80
2023/02/10 08:08:03;;;;;;;141.83;38.43;;;0.90;99.90;;;;;;6246879;22;38222;-80
2023/02/10 08:10:29;;;;;;;100.20;39.53;;;1.00;99.90;;;;;;6221665;22;38249;-79
2023/02/10 08:12:55;;;;;;;129.07;36.63;;;1.00;99.90;;;;;;6221411;22;37632;-80
2023/02/10 08:15:22;;;;;;;122.03;37.27;;;1.00;99.90;;;;;;6247275;22;39599;-80
2023/02/10 08:17:48;;;;;;;95.43;36.87;;;1.10;99.90;;;;;;6224418;22;37396;-83
2023/02/10 08:20:14;;;;;;;151.67;42.10;;;1.10;99.90;;;;;;6221230;22;36791;-80
2023/02/10 08:23:03;;;;;;;187.67;38.47;;;1.10;99.90;;;;;;6237698;22;37355;-81
2023/02/10 08:25:29;;;;;;;202.20;42.87;;;1.10;99.90;;;;;;6159738;22;49190;-81
2023/02/10 08:27:55;;;;;;;136.83;37.97;;;1.10;99.90;;;;;;6266950;22;38684;-81
2023/02/10 08:30:24;;;;;;;115.13;38.80;;;1.20;99.90;;;;;;6269705;22;38095;-80
2023/02/10 08:32:50;;;;;;;326.63;56.20;;;1.20;99.90;;;;;;6241154;22;37145;-81
2023/02/10 08:35:18;;;;;;;116.40;39.50;;;1.20;99.90;;;;;;6197312;22;38082;-81
2023/02/10 08:37:46;;;;;;;158.00;39.93;;;1.30;99.90;;;;;;6216187;22;38968;-82
2023/02/10 08:40:14;;;;;;;247.77;54.07;;;1.30;99.90;;;;;;6222271;22;39044;-81
2023/02/10 08:42:41;;;;;;;166.53;41.53;;;1.40;99.90;;;;;;6240916;22;38002;-81
2023/02/10 08:45:12;;;;;;;184.60;44.43;;;1.40;99.90;;;;;;6244073;22;40213;-82
2023/02/10 08:47:40;;;;;;;169.57;42.27;;;1.40;99.90;;;;;;6255552;22;39329;-81
2023/02/10 08:50:10;;;;;;;106.37;37.10;;;1.40;99.90;;;;;;6211088;22;38602;-82
2023/02/10 08:52:44;;;;;;;217.53;45.70;;;1.50;99.90;;;;;;6208460;22;37626;-81
2023/02/10 08:55:12;;;;;;;210.27;47.93;;;1.50;99.90;;;;;;6164065;22;40414;-80
2023/02/10 08:57:44;;;;;;;182.57;44.80;;;1.40;99.90;;;;;;6248080;22;39302;-81
2023/02/10 09:00:13;;;;;;;115.27;39.83;;;1.50;99.90;;;;;;6225444;22;40168;-84
2023/02/10 09:02:41;;;;;;;127.27;42.80;;;1.50;99.90;;;;;;6256067;22;37823;-81
2023/02/10 09:05:11;;;;;;;121.40;41.37;;;1.60;99.90;;;;;;6205962;22;38072;-81
2023/02/10 09:07:41;;;;;;;186.33;47.60;;;1.70;99.90;;;;;;6204474;22;38741;-80
2023/02/10 09:10:10;;;;;;;120.80;40.03;;;1.70;99.90;;;;;;6212229;22;37588;-80
2023/02/10 09:12:39;;;;;;;151.30;43.50;;;1.70;99.90;;;;;;6215897;22;39003;-80
2023/02/10 09:15:07;;;;;;;148.80;39.43;;;1.80;99.90;;;;;;6217138;22;37978;-81
2023/02/10 09:17:40;;;;;;;75.67;38.30;;;1.80;99.90;;;;;;6236596;22;47794;-80
2023/02/10 09:20:11;;;;;;;141.43;42.05;;;1.80;99.90;;;;;;6229589;22;38802;-81
2023/02/10 09:22:39;;;;;;;81.20;36.70;;;1.90;99.90;;;;;;6264332;22;49676;-81
2023/02/10 09:25:05;;;;;;;123.60;41.77;;;1.80;99.90;;;;;;6195290;23;39239;-80
2023/02/10 09:27:32;;;;;;;113.63;42.23;;;1.80;99.90;;;;;;6269924;22;49171;-81
2023/02/10 09:30:01;;;;;;;92.53;37.47;;;1.90;99.90;;;;;;6268636;22;39298;-81
2023/02/10 09:32:30;;;;;;;67.17;37.00;;;1.80;99.90;;;;;;6235819;22;38399;-81
2023/02/10 09:34:56;;;;;;;89.97;40.57;;;1.90;99.90;;;;;;6244403;22;39253;-81
2023/02/10 09:37:23;;;;;;;108.87;40.03;;;2.00;99.90;;;;;;6264437;22;39912;-81
2023/02/10 09:39:52;;;;;;;142.50;40.70;;;2.00;99.90;;;;;;6233169;22;38928;-81
2023/02/10 09:42:26;;;;;;;92.97;37.43;;;1.90;99.90;;;;;;6234820;22;41390;-81
2023/02/10 09:44:58;;;;;;;105.87;40.23;;;1.90;99.90;;;;;;6252491;22;40153;-81
2023/02/10 09:47:38;;;;;;;;;;;2.10;99.90;;;;;;6234363;22;38988;-82
2023/02/10 09:50:30;;;;;;;98.17;40.27;;;2.10;99.90;;;;;;6219212;22;38437;-81
2023/02/10 09:53:14;;;;;;;82.15;30.63;;;2.20;99.90;;;;;;6247725;22;37494;-81
2023/02/10 09:55:47;;;;;;;118.17;41.50;;;2.20;99.90;;;;;;6230498;22;48789;-81
2023/02/10 09:58:42;;;;;;;88.27;42.33;;;2.20;99.90;;;;;;6210355;22;40060;-81
2023/02/10 10:01:35;;;;;;;168.40;49.13;;;2.30;99.90;;;;;;6194276;22;37704;-81
2023/02/10 10:04:29;;;;;;;93.77;44.83;;;2.40;99.90;;;;;;6251686;22;37343;-83
2023/02/10 10:07:22;;;;;;;93.97;43.53;;;2.50;99.90;;;;;;6228922;22;39426;-82
2023/02/10 10:12:25;;;;;;;145.60;47.60;;;2.70;99.90;;;;;;6224567;22;20017;-81
2023/02/10 10:14:53;;;;;;;128.17;45.63;;;2.60;99.90;;;;;;6197494;23;36381;-82
2023/02/10 10:17:38;;;;;;;75.23;42.93;;;2.60;99.90;;;;;;6223147;23;39821;-81
2023/02/10 10:20:33;;;;;;;74.90;41.23;;;2.70;99.90;;;;;;6230997;23;38856;-82
2023/02/10 10:23:12;;;;;;;89.97;47.30;;;2.90;99.90;;;;;;6176247;23;48887;-81
2023/02/10 10:26:01;;;;;;;86.13;45.37;;;3.00;99.90;;;;;;6194999;23;47619;-82
2023/02/10 10:28:56;;;;;;;81.13;43.40;;;3.00;99.90;;;;;;6216769;23;39204;-79
2023/02/10 10:31:36;;;;;;;70.40;41.40;;;3.10;99.90;;;;;;6196355;23;38933;-82
2023/02/10 10:34:11;;;;;;;88.27;47.83;;;3.10;99.90;;;;;;6197760;23;37055;-82
2023/02/10 10:36:42;;;;;;;76.93;44.03;;;3.20;99.90;;;;;;6222539;23;36963;-80
2023/02/10 10:39:32;;;;;;;93.97;48.23;;;3.30;99.90;;;;;;6226377;23;38392;-81
2023/02/10 10:42:04;;;;;;;81.40;45.73;;;3.50;99.90;;;;;;6196945;23;37310;-82
2023/02/10 10:44:31;;;;;;;75.63;43.97;;;3.50;99.90;;;;;;6191674;23;47363;-80
2023/02/10 10:47:15;;;;;;;80.50;45.30;;;3.50;99.90;;;;;;6197615;23;37461;-81
2023/02/10 10:49:41;;;;;;;80.20;45.27;;;3.60;99.90;;;;;;6194890;23;46942;-79
2023/02/10 10:52:35;;;;;;;74.57;43.30;;;3.60;99.90;;;;;;6223909;23;37079;-82
2023/02/10 10:55:16;;;;;;;78.37;45.73;;;3.70;99.90;;;;;;6203152;23;37547;-80
2023/02/10 10:57:42;;;;;;;88.57;48.43;;;3.80;99.90;;;;;;6229056;23;48838;-80
2023/02/10 11:00:28;;;;;;;92.13;48.67;;;4.00;99.90;;;;;;6227455;23;39352;-80
2023/02/10 11:03:01;;;;;;;86.77;50.67;;;4.10;99.90;;;;;;6224791;23;48784;-80
2023/02/10 11:05:37;;;;;;;89.87;47.90;;;4.20;99.90;;;;;;6223194;23;47667;-79
2023/02/10 11:08:06;;;;;;;80.07;46.07;;;4.40;99.90;;;;;;6225990;23;37515;-80
2023/02/10 11:10:48;;;;;;;81.80;45.50;;;4.60;99.90;;;;;;6194411;23;37687;-80
2023/02/10 11:18:38;;;;;;;67.43;38.53;;;5.20;99.90;;;;;;6225862;22;20028;-82
2023/02/10 11:21:10;;;;;;;60.87;38.60;;;5.40;99.90;;;;;;6219717;22;40401;-81
2023/02/10 11:23:51;;;;;;;69.38;42.50;;;5.70;99.90;;;;;;6298814;22;38271;-83
2023/02/10 11:26:22;;;;;;;69.40;40.00;;;6.00;99.90;;;;;;6288075;22;38598;-82
2023/02/10 11:28:49;;;;;;;69.53;39.37;;;5.90;99.90;;;;;;6276767;22;38185;-81
2023/02/10 11:31:21;;;;;;;70.20;41.50;;;5.90;99.90;;;;;;6281776;22;39617;-82
2023/02/10 11:34:01;;;;;;;68.65;40.92;;;6.00;99.90;;;;;;6283423;22;38981;-82
2023/02/10 11:36:38;;;;;;;68.20;40.50;;;5.90;99.90;;;;;;6254281;22;47338;-81
2023/02/10 11:39:15;;;;;;;68.57;41.13;;;6.00;99.90;;;;;;6248277;22;37108;-81
2023/02/10 11:41:42;;;;;;;66.03;41.03;;;6.10;99.90;;;;;;6274270;22;39669;-81
2023/02/10 11:44:26;;;;;;;67.77;40.90;;;6.30;99.90;;;;;;6273661;22;39747;-80
2023/02/10 11:46:57;;;;;;;69.70;42.50;;;6.60;99.90;;;;;;6244723;22;37578;-81
2023/02/10 11:49:27;;;;;;;70.47;43.30;;;6.80;99.90;;;;;;6245952;22;36085;-81
2023/02/10 11:51:55;;;;;;;66.07;40.43;;;6.80;99.90;;;;;;6276659;22;39006;-81
2023/02/10 11:54:23;;;;;;;61.67;37.60;;;6.90;99.90;;;;;;6246559;22;38715;-81
2023/02/10 11:59:50;;;;;;;64.43;39.43;;;7.20;99.90;;;;;;6264822;22;49450;-81
2023/02/10 12:02:28;;;;;;;66.13;39.77;;;7.40;99.90;;;;;;6274634;22;37317;-81
2023/02/10 12:05:22;;;;;;;63.47;39.77;;;7.50;99.90;;;;;;6275682;22;38649;-82
2023/02/10 12:08:04;;;;;;;58.60;36.67;;;7.50;99.90;;;;;;6277408;22;49292;-82
2023/02/10 12:10:33;;;;;;;68.63;38.50;;;7.50;99.90;;;;;;6248074;22;49054;-80
2023/02/10 12:13:14;;;;;;;62.47;39.37;;;7.50;99.90;;;;;;6279159;22;37827;-82
2023/02/10 12:16:07;;;;;;;70.50;41.80;;;7.50;99.90;;;;;;6274600;22;49093;-81
2023/02/10 12:18:41;;;;;;;71.75;42.55;;;7.60;99.90;;;;;;6220215;22;48423;-81
2023/02/10 12:21:28;;;;;;;66.17;42.23;;;7.70;99.90;;;;;;6276984;22;37899;-80
2023/02/10 12:24:06;;;;;;;73.30;43.70;;;7.90;99.90;;;;;;6277027;22;38878;-79
2023/02/10 12:27:03;;;;;;;64.73;40.43;;;8.00;99.90;;;;;;6274840;22;48256;-79
2023/02/10 12:29:29;;;;;;;59.87;36.77;;;8.10;99.90;;;;;;6273998;22;49498;-81
2023/02/10 12:32:21;;;;;;;54.63;33.30;;;8.30;99.90;;;;;;6274148;22;37541;-81
2023/02/10 12:35:06;;;;;;;68.23;40.60;;;8.30;99.90;;;;;;6204076;22;48809;-81
2023/02/10 12:38:06;;;;;;;73.73;46.37;;;8.20;99.90;;;;;;6245684;22;48021;-81
2023/02/10 12:40:38;;;;;;;72.67;44.77;;;8.00;99.90;;;;;;6245361;22;47231;-81
2023/02/10 12:43:24;;;;;;;58.22;33.42;;;8.00;99.90;;;;;;6246963;22;36426;-81
2023/02/10 12:46:14;;;;;;;51.93;31.47;;;8.20;99.90;;;;;;6275028;22;20024;-81
2023/02/10 12:49:01;;;;;;;48.47;29.80;;;8.40;99.90;;;;;;6253094;22;47549;-81
2023/02/10 12:51:38;;;;;;;42.50;27.03;;;8.60;99.90;;;;;;6254139;22;47532;-81
2023/02/10 12:54:32;;;;;;;41.37;27.73;;;8.60;99.90;;;;;;6282650;22;38526;-81
2023/02/10 12:57:04;;;;;;;44.43;25.60;;;8.60;99.90;;;;;;6284093;22;38879;-81
2023/02/10 13:00:06;;;;;;;42.65;24.70;;;8.90;99.90;;;;;;6256993;22;48485;-82
2023/02/10 13:02:43;;;;;;;42.90;27.30;;;8.90;99.90;;;;;;6283395;22;47334;-81
2023/02/10 13:05:17;;;;;;;49.33;30.30;;;8.90;99.90;;;;;;6275845;22;36277;-81
2023/02/10 13:07:49;;;;;;;49.30;30.70;;;8.90;99.90;;;;;;6252394;22;38050;-80